sensor_id;sensor_type;location;lat;lon;timestamp;temperature;humidity
774;DHT22;370;48.810;9.150;2023-06-14T00:01:46;14.30;1.00
774;DHT22;370;48.810;9.150;2023-06-14T00:04:14;14.30;1.00
774;DHT22;370;48.810;9.150;2023-06-14T00:06:42;14.30;1.00
774;DHT22;370;48.810;9.150;2023-06-14T00:09:10;14.30;1.00
774;DHT22;370;48.810;9.150;2023-06-14T00:11:39;14.20;1.00
774;DHT22;370;48.810;9.150;2023-06-14T00:14:06;14.10;1.00
774;DHT22;370;48.810;9.150;2023-06-14T00:16:32;14.10;1.00
774;DHT22;370;48.810;9.150;2023-06-14T00:19:00;14.00;1.00
774;DHT22;370;48.810;9.150;2023-06-14T00:21:28;14.00;1.00
774;DHT22;370;48.810;9.150;2023-06-14T00:23:55;13.90;1.00
774;DHT22;370;48.810;9.150;2023-06-14T00:26:22;13.90;1.00
774;DHT22;370;48.810;9.150;2023-06-14T00:28:50;13.80;1.00
774;DHT22;370;48.810;9.150;2023-06-14T00:31:17;13.80;1.00
774;DHT22;370;48.810;9.150;2023-06-14T00:33:44;13.80;1.00
774;DHT22;370;48.810;9.150;2023-06-14T00:36:10;13.80;1.00
774;DHT22;370;48.810;9.150;2023-06-14T00:38:37;13.80;1.00
774;DHT22;370;48.810;9.150;2023-06-14T00:41:04;13.80;1.00
774;DHT22;370;48.810;9.150;2023-06-14T00:43:31;13.80;1.00
774;DHT22;370;48.810;9.150;2023-06-14T00:46:01;13.80;1.00
774;DHT22;370;48.810;9.150;2023-06-14T00:48:28;13.80;1.00
774;DHT22;370;48.810;9.150;2023-06-14T00:50:56;13.70;1.00
774;DHT22;370;48.810;9.150;2023-06-14T00:53:23;13.70;1.00
774;DHT22;370;48.810;9.150;2023-06-14T00:55:50;13.70;1.00
774;DHT22;370;48.810;9.150;2023-06-14T00:58:17;13.70;1.00
774;DHT22;370;48.810;9.150;2023-06-14T01:00:44;13.60;1.00
774;DHT22;370;48.810;9.150;2023-06-14T01:03:12;13.50;1.00
774;DHT22;370;48.810;9.150;2023-06-14T01:05:40;13.50;1.00
774;DHT22;370;48.810;9.150;2023-06-14T01:08:17;13.50;1.00
774;DHT22;370;48.810;9.150;2023-06-14T01:10:50;13.40;1.00
774;DHT22;370;48.810;9.150;2023-06-14T01:13:21;13.40;1.00
774;DHT22;370;48.810;9.150;2023-06-14T01:15:51;13.30;1.00
774;DHT22;370;48.810;9.150;2023-06-14T01:18:19;13.20;1.00
774;DHT22;370;48.810;9.150;2023-06-14T01:20:47;13.20;1.00
774;DHT22;370;48.810;9.150;2023-06-14T01:23:17;13.20;1.00
774;DHT22;370;48.810;9.150;2023-06-14T01:25:44;13.20;1.00
774;DHT22;370;48.810;9.150;2023-06-14T01:28:13;13.10;1.00
774;DHT22;370;48.810;9.150;2023-06-14T01:30:43;13.10;1.00
774;DHT22;370;48.810;9.150;2023-06-14T01:33:11;13.10;1.00
774;DHT22;370;48.810;9.150;2023-06-14T01:35:39;13.00;1.00
774;DHT22;370;48.810;9.150;2023-06-14T01:38:06;13.00;1.00
774;DHT22;370;48.810;9.150;2023-06-14T01:40:35;13.00;1.00
774;DHT22;370;48.810;9.150;2023-06-14T01:43:02;13.00;1.00
774;DHT22;370;48.810;9.150;2023-06-14T01:45:30;12.90;1.00
774;DHT22;370;48.810;9.150;2023-06-14T01:47:57;12.90;1.00
774;DHT22;370;48.810;9.150;2023-06-14T01:50:28;12.80;1.00
774;DHT22;370;48.810;9.150;2023-06-14T01:52:56;12.80;1.00
774;DHT22;370;48.810;9.150;2023-06-14T01:55:22;12.80;1.00
774;DHT22;370;48.810;9.150;2023-06-14T01:57:51;12.80;1.00
774;DHT22;370;48.810;9.150;2023-06-14T02:00:18;12.80;1.00
774;DHT22;370;48.810;9.150;2023-06-14T02:02:45;12.70;1.00
774;DHT22;370;48.810;9.150;2023-06-14T02:05:12;12.70;1.00
774;DHT22;370;48.810;9.150;2023-06-14T02:07:39;12.70;1.00
774;DHT22;370;48.810;9.150;2023-06-14T02:10:06;12.70;1.00
774;DHT22;370;48.810;9.150;2023-06-14T02:12:33;12.60;1.00
774;DHT22;370;48.810;9.150;2023-06-14T02:15:01;12.60;1.00
774;DHT22;370;48.810;9.150;2023-06-14T02:17:29;12.60;1.00
774;DHT22;370;48.810;9.150;2023-06-14T02:19:56;12.50;1.00
774;DHT22;370;48.810;9.150;2023-06-14T02:22:23;12.50;1.00
774;DHT22;370;48.810;9.150;2023-06-14T02:24:50;12.50;1.00
774;DHT22;370;48.810;9.150;2023-06-14T02:27:17;12.50;1.00
774;DHT22;370;48.810;9.150;2023-06-14T02:29:43;12.40;1.00
774;DHT22;370;48.810;9.150;2023-06-14T02:32:12;12.40;1.00
774;DHT22;370;48.810;9.150;2023-06-14T02:34:38;12.40;1.00
774;DHT22;370;48.810;9.150;2023-06-14T02:37:06;12.40;1.00
774;DHT22;370;48.810;9.150;2023-06-14T02:39:33;12.40;1.00
774;DHT22;370;48.810;9.150;2023-06-14T02:42:00;12.30;1.00
774;DHT22;370;48.810;9.150;2023-06-14T02:44:27;12.30;1.00
774;DHT22;370;48.810;9.150;2023-06-14T02:46:53;12.30;1.00
774;DHT22;370;48.810;9.150;2023-06-14T02:49:22;12.30;1.00
774;DHT22;370;48.810;9.150;2023-06-14T02:51:48;12.30;1.00
774;DHT22;370;48.810;9.150;2023-06-14T02:54:15;12.30;1.00
774;DHT22;370;48.810;9.150;2023-06-14T02:56:42;12.30;1.00
774;DHT22;370;48.810;9.150;2023-06-14T02:59:08;12.20;1.00
774;DHT22;370;48.810;9.150;2023-06-14T03:01:35;12.20;1.00
774;DHT22;370;48.810;9.150;2023-06-14T03:04:06;12.20;1.00
774;DHT22;370;48.810;9.150;2023-06-14T03:06:34;12.20;1.00
774;DHT22;370;48.810;9.150;2023-06-14T03:09:02;12.20;1.00
774;DHT22;370;48.810;9.150;2023-06-14T03:11:30;12.20;1.00
774;DHT22;370;48.810;9.150;2023-06-14T03:13:56;12.20;1.00
774;DHT22;370;48.810;9.150;2023-06-14T03:16:23;12.20;1.00
774;DHT22;370;48.810;9.150;2023-06-14T03:18:51;12.20;1.00
774;DHT22;370;48.810;9.150;2023-06-14T03:21:18;12.20;1.00
774;DHT22;370;48.810;9.150;2023-06-14T03:23:47;12.20;1.00
774;DHT22;370;48.810;9.150;2023-06-14T03:26:14;12.20;1.00
774;DHT22;370;48.810;9.150;2023-06-14T03:28:43;12.20;1.00
774;DHT22;370;48.810;9.150;2023-06-14T03:31:10;12.20;1.00
774;DHT22;370;48.810;9.150;2023-06-14T03:33:37;12.20;1.00
774;DHT22;370;48.810;9.150;2023-06-14T03:36:05;12.20;1.00
774;DHT22;370;48.810;9.150;2023-06-14T03:38:32;12.20;1.00
774;DHT22;370;48.810;9.150;2023-06-14T03:41:00;12.20;1.00
774;DHT22;370;48.810;9.150;2023-06-14T03:43:27;12.20;1.00
774;DHT22;370;48.810;9.150;2023-06-14T03:45:55;12.20;1.00
774;DHT22;370;48.810;9.150;2023-06-14T03:48:22;12.20;1.00
774;DHT22;370;48.810;9.150;2023-06-14T03:50:49;12.30;1.00
774;DHT22;370;48.810;9.150;2023-06-14T03:53:15;12.30;1.00
774;DHT22;370;48.810;9.150;2023-06-14T03:55:42;12.30;1.00
774;DHT22;370;48.810;9.150;2023-06-14T03:58:10;12.40;1.00
774;DHT22;370;48.810;9.150;2023-06-14T04:00:38;12.50;1.00
774;DHT22;370;48.810;9.150;2023-06-14T04:03:05;12.50;1.00
774;DHT22;370;48.810;9.150;2023-06-14T04:05:32;12.60;1.00
774;DHT22;370;48.810;9.150;2023-06-14T04:07:58;12.60;1.00
774;DHT22;370;48.810;9.150;2023-06-14T04:10:26;12.70;1.00
774;DHT22;370;48.810;9.150;2023-06-14T04:12:53;12.70;1.00
774;DHT22;370;48.810;9.150;2023-06-14T04:15:21;12.80;1.00
774;DHT22;370;48.810;9.150;2023-06-14T04:17:48;12.80;1.00
774;DHT22;370;48.810;9.150;2023-06-14T04:20:15;12.90;1.00
774;DHT22;370;48.810;9.150;2023-06-14T04:22:42;13.00;1.00
774;DHT22;370;48.810;9.150;2023-06-14T04:25:09;13.00;1.00
774;DHT22;370;48.810;9.150;2023-06-14T04:27:37;13.10;1.00
774;DHT22;370;48.810;9.150;2023-06-14T04:30:05;13.20;1.00
774;DHT22;370;48.810;9.150;2023-06-14T04:32:34;13.30;1.00
774;DHT22;370;48.810;9.150;2023-06-14T04:35:05;13.30;1.00
774;DHT22;370;48.810;9.150;2023-06-14T04:37:32;13.50;1.00
774;DHT22;370;48.810;9.150;2023-06-14T04:39:59;13.50;1.00
774;DHT22;370;48.810;9.150;2023-06-14T04:42:26;13.70;1.00
774;DHT22;370;48.810;9.150;2023-06-14T04:44:56;13.80;1.00
774;DHT22;370;48.810;9.150;2023-06-14T04:47:23;13.90;1.00
774;DHT22;370;48.810;9.150;2023-06-14T04:49:56;14.00;1.00
774;DHT22;370;48.810;9.150;2023-06-14T04:52:23;14.20;1.00
774;DHT22;370;48.810;9.150;2023-06-14T04:54:51;14.30;1.00
774;DHT22;370;48.810;9.150;2023-06-14T04:57:19;14.50;1.00
774;DHT22;370;48.810;9.150;2023-06-14T04:59:47;14.70;1.00
774;DHT22;370;48.810;9.150;2023-06-14T05:02:20;14.80;1.00
774;DHT22;370;48.810;9.150;2023-06-14T05:04:47;15.00;1.00
774;DHT22;370;48.810;9.150;2023-06-14T05:07:15;15.10;1.00
774;DHT22;370;48.810;9.150;2023-06-14T05:09:42;15.30;1.00
774;DHT22;370;48.810;9.150;2023-06-14T05:12:09;15.50;1.00
774;DHT22;370;48.810;9.150;2023-06-14T05:14:35;15.70;1.00
774;DHT22;370;48.810;9.150;2023-06-14T05:17:02;15.80;1.00
774;DHT22;370;48.810;9.150;2023-06-14T05:19:29;16.00;1.00
774;DHT22;370;48.810;9.150;2023-06-14T05:21:56;16.20;1.00
774;DHT22;370;48.810;9.150;2023-06-14T05:24:24;16.40;1.00
774;DHT22;370;48.810;9.150;2023-06-14T05:26:51;16.60;1.00
774;DHT22;370;48.810;9.150;2023-06-14T05:29:17;16.70;1.00
774;DHT22;370;48.810;9.150;2023-06-14T05:31:44;16.80;1.00
774;DHT22;370;48.810;9.150;2023-06-14T05:34:11;16.90;1.00
774;DHT22;370;48.810;9.150;2023-06-14T05:36:39;16.90;1.00
774;DHT22;370;48.810;9.150;2023-06-14T05:39:05;17.10;1.00
774;DHT22;370;48.810;9.150;2023-06-14T05:41:35;17.30;1.00
774;DHT22;370;48.810;9.150;2023-06-14T05:44:02;17.40;1.00
774;DHT22;370;48.810;9.150;2023-06-14T05:46:28;17.50;1.00
774;DHT22;370;48.810;9.150;2023-06-14T05:48:55;17.70;1.00
774;DHT22;370;48.810;9.150;2023-06-14T05:51:23;17.90;1.00
774;DHT22;370;48.810;9.150;2023-06-14T05:53:51;18.10;1.00
774;DHT22;370;48.810;9.150;2023-06-14T05:56:18;18.30;1.00
774;DHT22;370;48.810;9.150;2023-06-14T05:58:46;18.40;1.00
774;DHT22;370;48.810;9.150;2023-06-14T06:01:13;18.50;1.00
774;DHT22;370;48.810;9.150;2023-06-14T06:03:41;18.70;1.00
774;DHT22;370;48.810;9.150;2023-06-14T06:06:11;18.70;1.00
774;DHT22;370;48.810;9.150;2023-06-14T06:08:37;18.90;1.00
774;DHT22;370;48.810;9.150;2023-06-14T06:11:04;19.10;1.00
774;DHT22;370;48.810;9.150;2023-06-14T06:13:31;19.10;1.00
774;DHT22;370;48.810;9.150;2023-06-14T06:15:59;19.30;1.00
774;DHT22;370;48.810;9.150;2023-06-14T06:18:26;19.50;1.00
774;DHT22;370;48.810;9.150;2023-06-14T06:20:52;19.70;1.00
774;DHT22;370;48.810;9.150;2023-06-14T06:23:19;19.80;1.00
774;DHT22;370;48.810;9.150;2023-06-14T06:25:46;19.80;1.00
774;DHT22;370;48.810;9.150;2023-06-14T06:28:12;19.90;1.00
774;DHT22;370;48.810;9.150;2023-06-14T06:30:39;20.00;1.00
774;DHT22;370;48.810;9.150;2023-06-14T06:33:07;20.10;1.00
774;DHT22;370;48.810;9.150;2023-06-14T06:35:34;20.30;1.00
774;DHT22;370;48.810;9.150;2023-06-14T06:38:00;20.50;1.00
774;DHT22;370;48.810;9.150;2023-06-14T06:40:27;20.70;1.00
774;DHT22;370;48.810;9.150;2023-06-14T06:42:54;20.80;1.00
774;DHT22;370;48.810;9.150;2023-06-14T06:45:21;20.90;1.00
774;DHT22;370;48.810;9.150;2023-06-14T06:47:48;21.10;1.00
774;DHT22;370;48.810;9.150;2023-06-14T06:50:18;21.30;1.00
774;DHT22;370;48.810;9.150;2023-06-14T06:52:45;21.50;1.00
774;DHT22;370;48.810;9.150;2023-06-14T06:55:11;21.70;1.00
774;DHT22;370;48.810;9.150;2023-06-14T06:57:38;21.90;1.00
774;DHT22;370;48.810;9.150;2023-06-14T07:00:06;22.10;1.00
774;DHT22;370;48.810;9.150;2023-06-14T07:02:35;22.30;1.00
774;DHT22;370;48.810;9.150;2023-06-14T07:05:01;22.60;1.00
774;DHT22;370;48.810;9.150;2023-06-14T07:07:30;22.90;1.00
774;DHT22;370;48.810;9.150;2023-06-14T07:09:56;23.40;1.00
774;DHT22;370;48.810;9.150;2023-06-14T07:12:24;23.60;1.00
774;DHT22;370;48.810;9.150;2023-06-14T07:14:51;24.00;1.00
774;DHT22;370;48.810;9.150;2023-06-14T07:17:18;24.50;1.00
774;DHT22;370;48.810;9.150;2023-06-14T07:19:44;24.90;1.00
774;DHT22;370;48.810;9.150;2023-06-14T07:25:32;25.80;1.00
774;DHT22;370;48.810;9.150;2023-06-14T07:27:59;26.40;1.00
774;DHT22;370;48.810;9.150;2023-06-14T07:30:25;26.70;1.00
774;DHT22;370;48.810;9.150;2023-06-14T07:32:52;27.20;1.00
774;DHT22;370;48.810;9.150;2023-06-14T07:35:20;28.00;1.00
774;DHT22;370;48.810;9.150;2023-06-14T07:37:47;28.60;1.00
774;DHT22;370;48.810;9.150;2023-06-14T07:40:13;29.20;1.00
774;DHT22;370;48.810;9.150;2023-06-14T07:42:42;30.00;1.00
774;DHT22;370;48.810;9.150;2023-06-14T07:45:09;30.80;1.00
774;DHT22;370;48.810;9.150;2023-06-14T07:47:36;31.40;1.00
774;DHT22;370;48.810;9.150;2023-06-14T07:50:04;31.80;1.00
774;DHT22;370;48.810;9.150;2023-06-14T07:52:31;32.10;1.00
774;DHT22;370;48.810;9.150;2023-06-14T07:54:58;32.60;1.00
774;DHT22;370;48.810;9.150;2023-06-14T07:57:25;32.90;1.00
774;DHT22;370;48.810;9.150;2023-06-14T07:59:54;33.70;1.00
774;DHT22;370;48.810;9.150;2023-06-14T08:02:21;34.50;1.00
774;DHT22;370;48.810;9.150;2023-06-14T08:04:48;34.60;1.00
774;DHT22;370;48.810;9.150;2023-06-14T08:07:15;35.40;1.00
774;DHT22;370;48.810;9.150;2023-06-14T08:09:41;34.80;1.00
774;DHT22;370;48.810;9.150;2023-06-14T08:12:08;35.10;1.00
774;DHT22;370;48.810;9.150;2023-06-14T08:14:36;36.20;1.00
774;DHT22;370;48.810;9.150;2023-06-14T08:17:04;36.30;1.00
774;DHT22;370;48.810;9.150;2023-06-14T08:19:31;36.30;1.00
774;DHT22;370;48.810;9.150;2023-06-14T08:21:58;36.80;1.00
774;DHT22;370;48.810;9.150;2023-06-14T08:24:25;37.00;1.00
774;DHT22;370;48.810;9.150;2023-06-14T08:26:52;37.30;1.00
774;DHT22;370;48.810;9.150;2023-06-14T08:29:19;37.30;1.00
774;DHT22;370;48.810;9.150;2023-06-14T08:31:48;37.90;1.00
774;DHT22;370;48.810;9.150;2023-06-14T08:34:20;38.20;1.00
774;DHT22;370;48.810;9.150;2023-06-14T08:36:50;38.50;1.00
774;DHT22;370;48.810;9.150;2023-06-14T08:39:17;39.10;1.00
774;DHT22;370;48.810;9.150;2023-06-14T08:41:46;39.20;1.00
774;DHT22;370;48.810;9.150;2023-06-14T08:44:13;39.80;1.00
774;DHT22;370;48.810;9.150;2023-06-14T08:46:42;39.60;1.00
774;DHT22;370;48.810;9.150;2023-06-14T08:49:11;39.40;1.00
774;DHT22;370;48.810;9.150;2023-06-14T08:51:41;39.30;1.00
774;DHT22;370;48.810;9.150;2023-06-14T08:54:10;39.10;1.00
774;DHT22;370;48.810;9.150;2023-06-14T08:56:38;39.90;1.00
774;DHT22;370;48.810;9.150;2023-06-14T08:59:08;39.80;1.00
774;DHT22;370;48.810;9.150;2023-06-14T09:01:37;40.40;1.00
774;DHT22;370;48.810;9.150;2023-06-14T09:04:04;40.80;1.00
774;DHT22;370;48.810;9.150;2023-06-14T09:06:31;41.40;1.00
774;DHT22;370;48.810;9.150;2023-06-14T09:09:00;42.00;1.00
774;DHT22;370;48.810;9.150;2023-06-14T09:11:28;41.90;1.00
774;DHT22;370;48.810;9.150;2023-06-14T09:13:55;42.80;1.00
774;DHT22;370;48.810;9.150;2023-06-14T09:16:22;42.70;1.00
774;DHT22;370;48.810;9.150;2023-06-14T09:18:50;43.40;1.00
774;DHT22;370;48.810;9.150;2023-06-14T09:21:17;43.90;1.00
774;DHT22;370;48.810;9.150;2023-06-14T09:23:45;44.30;1.00
774;DHT22;370;48.810;9.150;2023-06-14T09:26:15;44.30;1.00
774;DHT22;370;48.810;9.150;2023-06-14T09:28:43;44.80;1.00
774;DHT22;370;48.810;9.150;2023-06-14T09:31:11;45.00;1.00
774;DHT22;370;48.810;9.150;2023-06-14T09:33:38;44.50;1.00
774;DHT22;370;48.810;9.150;2023-06-14T09:36:10;44.10;1.00
774;DHT22;370;48.810;9.150;2023-06-14T09:38:40;44.00;1.00
774;DHT22;370;48.810;9.150;2023-06-14T09:41:09;44.40;1.00
774;DHT22;370;48.810;9.150;2023-06-14T09:43:37;45.10;1.00
774;DHT22;370;48.810;9.150;2023-06-14T09:46:05;45.30;1.00
774;DHT22;370;48.810;9.150;2023-06-14T09:48:33;45.80;1.00
774;DHT22;370;48.810;9.150;2023-06-14T09:51:00;44.50;1.00
774;DHT22;370;48.810;9.150;2023-06-14T09:53:30;45.30;1.00
774;DHT22;370;48.810;9.150;2023-06-14T09:55:58;46.20;1.00
774;DHT22;370;48.810;9.150;2023-06-14T09:58:26;46.40;1.00
774;DHT22;370;48.810;9.150;2023-06-14T10:00:55;47.00;1.00
774;DHT22;370;48.810;9.150;2023-06-14T10:03:27;47.30;1.00
774;DHT22;370;48.810;9.150;2023-06-14T10:05:55;47.20;1.00
774;DHT22;370;48.810;9.150;2023-06-14T10:08:30;47.80;1.00
774;DHT22;370;48.810;9.150;2023-06-14T10:10:58;48.00;1.00
774;DHT22;370;48.810;9.150;2023-06-14T10:13:26;49.40;1.00
774;DHT22;370;48.810;9.150;2023-06-14T10:16:00;50.10;1.00
774;DHT22;370;48.810;9.150;2023-06-14T10:18:35;49.80;1.00
774;DHT22;370;48.810;9.150;2023-06-14T10:21:13;50.60;1.00
774;DHT22;370;48.810;9.150;2023-06-14T10:23:44;49.30;1.00
774;DHT22;370;48.810;9.150;2023-06-14T10:26:18;47.00;1.00
774;DHT22;370;48.810;9.150;2023-06-14T10:28:56;47.00;1.00
774;DHT22;370;48.810;9.150;2023-06-14T10:31:40;47.80;1.00
774;DHT22;370;48.810;9.150;2023-06-14T10:34:07;48.20;1.00
774;DHT22;370;48.810;9.150;2023-06-14T10:36:39;49.00;1.00
774;DHT22;370;48.810;9.150;2023-06-14T10:39:08;49.70;1.00
774;DHT22;370;48.810;9.150;2023-06-14T10:41:37;49.10;1.00
774;DHT22;370;48.810;9.150;2023-06-14T10:47:07;50.50;1.00
774;DHT22;370;48.810;9.150;2023-06-14T10:49:39;50.50;1.00
774;DHT22;370;48.810;9.150;2023-06-14T10:52:10;49.70;1.00
774;DHT22;370;48.810;9.150;2023-06-14T10:55:05;47.60;1.00
774;DHT22;370;48.810;9.150;2023-06-14T10:57:35;47.50;1.00
774;DHT22;370;48.810;9.150;2023-06-14T11:00:03;48.20;1.00
774;DHT22;370;48.810;9.150;2023-06-14T11:02:52;49.00;1.00
774;DHT22;370;48.810;9.150;2023-06-14T11:05:24;49.60;1.00
774;DHT22;370;48.810;9.150;2023-06-14T11:10:51;51.00;1.00
774;DHT22;370;48.810;9.150;2023-06-14T11:13:24;51.20;1.00
774;DHT22;370;48.810;9.150;2023-06-14T11:15:51;51.60;1.00
774;DHT22;370;48.810;9.150;2023-06-14T11:18:22;51.70;1.00
774;DHT22;370;48.810;9.150;2023-06-14T11:20:50;51.60;1.00
774;DHT22;370;48.810;9.150;2023-06-14T11:23:17;50.90;1.00
774;DHT22;370;48.810;9.150;2023-06-14T11:25:49;50.00;1.00
774;DHT22;370;48.810;9.150;2023-06-14T11:28:20;47.90;1.00
774;DHT22;370;48.810;9.150;2023-06-14T11:30:48;45.10;1.00
774;DHT22;370;48.810;9.150;2023-06-14T11:33:17;42.30;1.00
774;DHT22;370;48.810;9.150;2023-06-14T11:35:46;40.00;1.00
774;DHT22;370;48.810;9.150;2023-06-14T11:38:13;38.30;1.00
774;DHT22;370;48.810;9.150;2023-06-14T11:40:40;38.70;1.00
774;DHT22;370;48.810;9.150;2023-06-14T11:43:07;41.30;1.00
774;DHT22;370;48.810;9.150;2023-06-14T11:45:34;44.00;1.00
774;DHT22;370;48.810;9.150;2023-06-14T11:48:01;43.40;1.00
774;DHT22;370;48.810;9.150;2023-06-14T11:50:28;40.90;1.00
774;DHT22;370;48.810;9.150;2023-06-14T11:52:58;41.30;1.00
774;DHT22;370;48.810;9.150;2023-06-14T11:55:32;42.70;1.00
774;DHT22;370;48.810;9.150;2023-06-14T11:57:59;43.40;1.00
774;DHT22;370;48.810;9.150;2023-06-14T12:00:26;42.40;1.00
774;DHT22;370;48.810;9.150;2023-06-14T12:02:54;41.10;1.00
774;DHT22;370;48.810;9.150;2023-06-14T12:05:22;40.00;1.00
774;DHT22;370;48.810;9.150;2023-06-14T12:07:49;41.30;1.00
774;DHT22;370;48.810;9.150;2023-06-14T12:10:17;43.10;1.00
774;DHT22;370;48.810;9.150;2023-06-14T12:12:44;44.70;1.00
774;DHT22;370;48.810;9.150;2023-06-14T12:15:11;46.60;1.00
774;DHT22;370;48.810;9.150;2023-06-14T12:17:39;47.60;1.00
774;DHT22;370;48.810;9.150;2023-06-14T12:20:09;48.30;1.00
774;DHT22;370;48.810;9.150;2023-06-14T12:22:50;47.50;1.00
774;DHT22;370;48.810;9.150;2023-06-14T12:25:32;45.30;1.00
774;DHT22;370;48.810;9.150;2023-06-14T12:28:04;43.30;1.00
774;DHT22;370;48.810;9.150;2023-06-14T12:30:31;43.30;1.00
774;DHT22;370;48.810;9.150;2023-06-14T12:32:58;42.90;1.00
774;DHT22;370;48.810;9.150;2023-06-14T12:35:26;42.40;1.00
774;DHT22;370;48.810;9.150;2023-06-14T12:37:52;43.30;1.00
774;DHT22;370;48.810;9.150;2023-06-14T12:40:19;44.20;1.00
774;DHT22;370;48.810;9.150;2023-06-14T12:42:47;45.00;1.00
774;DHT22;370;48.810;9.150;2023-06-14T12:45:15;45.80;1.00
774;DHT22;370;48.810;9.150;2023-06-14T12:47:42;46.80;1.00
774;DHT22;370;48.810;9.150;2023-06-14T12:50:09;45.90;1.00
774;DHT22;370;48.810;9.150;2023-06-14T12:52:36;46.60;1.00
774;DHT22;370;48.810;9.150;2023-06-14T12:55:03;46.30;1.00
774;DHT22;370;48.810;9.150;2023-06-14T12:57:30;45.20;1.00
774;DHT22;370;48.810;9.150;2023-06-14T12:59:59;44.60;1.00
774;DHT22;370;48.810;9.150;2023-06-14T13:02:26;45.70;1.00
774;DHT22;370;48.810;9.150;2023-06-14T13:04:54;45.40;1.00
774;DHT22;370;48.810;9.150;2023-06-14T13:07:21;43.30;1.00
774;DHT22;370;48.810;9.150;2023-06-14T13:09:48;41.20;1.00
774;DHT22;370;48.810;9.150;2023-06-14T13:12:15;39.70;1.00
774;DHT22;370;48.810;9.150;2023-06-14T13:14:42;39.30;1.00
774;DHT22;370;48.810;9.150;2023-06-14T13:17:11;39.40;1.00
774;DHT22;370;48.810;9.150;2023-06-14T13:19:38;40.90;1.00
774;DHT22;370;48.810;9.150;2023-06-14T13:22:05;42.40;1.00
774;DHT22;370;48.810;9.150;2023-06-14T13:24:33;44.10;1.00
774;DHT22;370;48.810;9.150;2023-06-14T13:27:00;44.80;1.00
774;DHT22;370;48.810;9.150;2023-06-14T13:29:27;45.40;1.00
774;DHT22;370;48.810;9.150;2023-06-14T13:31:54;46.10;1.00
774;DHT22;370;48.810;9.150;2023-06-14T13:34:22;46.30;1.00
774;DHT22;370;48.810;9.150;2023-06-14T13:36:50;47.20;1.00
774;DHT22;370;48.810;9.150;2023-06-14T13:39:18;47.50;1.00
774;DHT22;370;48.810;9.150;2023-06-14T13:41:45;47.20;1.00
774;DHT22;370;48.810;9.150;2023-06-14T13:44:12;47.50;1.00
774;DHT22;370;48.810;9.150;2023-06-14T13:46:40;47.40;1.00
774;DHT22;370;48.810;9.150;2023-06-14T13:49:08;47.60;1.00
774;DHT22;370;48.810;9.150;2023-06-14T13:51:37;46.00;1.00
774;DHT22;370;48.810;9.150;2023-06-14T13:54:04;44.30;1.00
774;DHT22;370;48.810;9.150;2023-06-14T13:56:31;45.00;1.00
774;DHT22;370;48.810;9.150;2023-06-14T13:58:58;45.60;1.00
774;DHT22;370;48.810;9.150;2023-06-14T14:01:25;43.30;1.00
774;DHT22;370;48.810;9.150;2023-06-14T14:03:54;41.50;1.00
774;DHT22;370;48.810;9.150;2023-06-14T14:06:21;39.70;1.00
774;DHT22;370;48.810;9.150;2023-06-14T14:08:49;38.80;1.00
774;DHT22;370;48.810;9.150;2023-06-14T14:11:16;37.30;1.00
774;DHT22;370;48.810;9.150;2023-06-14T14:13:43;35.80;1.00
774;DHT22;370;48.810;9.150;2023-06-14T14:16:10;34.40;1.00
774;DHT22;370;48.810;9.150;2023-06-14T14:18:37;33.90;1.00
774;DHT22;370;48.810;9.150;2023-06-14T14:21:04;33.20;1.00
774;DHT22;370;48.810;9.150;2023-06-14T14:23:30;32.70;1.00
774;DHT22;370;48.810;9.150;2023-06-14T14:25:59;32.30;1.00
774;DHT22;370;48.810;9.150;2023-06-14T14:28:29;31.80;1.00
774;DHT22;370;48.810;9.150;2023-06-14T14:30:56;32.50;1.00
774;DHT22;370;48.810;9.150;2023-06-14T14:33:22;34.30;1.00
774;DHT22;370;48.810;9.150;2023-06-14T14:35:49;35.30;1.00
774;DHT22;370;48.810;9.150;2023-06-14T14:38:19;35.80;1.00
774;DHT22;370;48.810;9.150;2023-06-14T14:40:48;35.20;1.00
774;DHT22;370;48.810;9.150;2023-06-14T14:43:16;34.40;1.00
774;DHT22;370;48.810;9.150;2023-06-14T14:45:43;33.90;1.00
774;DHT22;370;48.810;9.150;2023-06-14T14:48:10;34.90;1.00
774;DHT22;370;48.810;9.150;2023-06-14T14:50:36;35.30;1.00
774;DHT22;370;48.810;9.150;2023-06-14T14:53:03;34.20;1.00
774;DHT22;370;48.810;9.150;2023-06-14T14:55:30;34.30;1.00
774;DHT22;370;48.810;9.150;2023-06-14T14:58:00;35.30;1.00
774;DHT22;370;48.810;9.150;2023-06-14T15:00:29;34.80;1.00
774;DHT22;370;48.810;9.150;2023-06-14T15:02:56;33.50;1.00
774;DHT22;370;48.810;9.150;2023-06-14T15:05:23;33.50;1.00
774;DHT22;370;48.810;9.150;2023-06-14T15:07:49;32.70;1.00
774;DHT22;370;48.810;9.150;2023-06-14T15:10:16;31.40;1.00
774;DHT22;370;48.810;9.150;2023-06-14T15:12:43;30.60;1.00
774;DHT22;370;48.810;9.150;2023-06-14T15:15:10;29.90;1.00
774;DHT22;370;48.810;9.150;2023-06-14T15:17:38;29.40;1.00
774;DHT22;370;48.810;9.150;2023-06-14T15:20:06;29.30;1.00
774;DHT22;370;48.810;9.150;2023-06-14T15:22:33;30.40;1.00
774;DHT22;370;48.810;9.150;2023-06-14T15:25:00;31.80;1.00
774;DHT22;370;48.810;9.150;2023-06-14T15:27:27;31.90;1.00
774;DHT22;370;48.810;9.150;2023-06-14T15:29:54;32.80;1.00
774;DHT22;370;48.810;9.150;2023-06-14T15:32:20;32.30;1.00
774;DHT22;370;48.810;9.150;2023-06-14T15:34:48;31.20;1.00
774;DHT22;370;48.810;9.150;2023-06-14T15:37:15;30.50;1.00
774;DHT22;370;48.810;9.150;2023-06-14T15:39:42;30.10;1.00
774;DHT22;370;48.810;9.150;2023-06-14T15:42:09;30.20;1.00
774;DHT22;370;48.810;9.150;2023-06-14T15:44:37;30.10;1.00
774;DHT22;370;48.810;9.150;2023-06-14T15:47:04;29.60;1.00
774;DHT22;370;48.810;9.150;2023-06-14T15:49:31;29.00;1.00
774;DHT22;370;48.810;9.150;2023-06-14T15:51:59;28.90;1.00
774;DHT22;370;48.810;9.150;2023-06-14T15:54:26;28.70;1.00
774;DHT22;370;48.810;9.150;2023-06-14T15:56:53;28.70;1.00
774;DHT22;370;48.810;9.150;2023-06-14T15:59:20;28.60;1.00
774;DHT22;370;48.810;9.150;2023-06-14T16:01:46;28.30;1.00
774;DHT22;370;48.810;9.150;2023-06-14T16:04:13;28.20;1.00
774;DHT22;370;48.810;9.150;2023-06-14T16:06:40;28.10;1.00
774;DHT22;370;48.810;9.150;2023-06-14T16:09:08;27.80;1.00
774;DHT22;370;48.810;9.150;2023-06-14T16:11:35;27.70;1.00
774;DHT22;370;48.810;9.150;2023-06-14T16:14:04;27.70;1.00
774;DHT22;370;48.810;9.150;2023-06-14T16:16:30;27.70;1.00
774;DHT22;370;48.810;9.150;2023-06-14T16:18:57;27.70;1.00
774;DHT22;370;48.810;9.150;2023-06-14T16:21:24;27.70;1.00
774;DHT22;370;48.810;9.150;2023-06-14T16:27:16;27.40;1.00
774;DHT22;370;48.810;9.150;2023-06-14T16:29:42;27.50;1.00
774;DHT22;370;48.810;9.150;2023-06-14T16:32:10;27.40;1.00
774;DHT22;370;48.810;9.150;2023-06-14T16:34:37;27.40;1.00
774;DHT22;370;48.810;9.150;2023-06-14T16:37:03;27.50;1.00
774;DHT22;370;48.810;9.150;2023-06-14T16:39:30;27.50;1.00
774;DHT22;370;48.810;9.150;2023-06-14T16:41:57;27.70;1.00
774;DHT22;370;48.810;9.150;2023-06-14T16:44:25;27.70;1.00
774;DHT22;370;48.810;9.150;2023-06-14T16:46:52;27.70;1.00
774;DHT22;370;48.810;9.150;2023-06-14T16:49:19;27.70;1.00
774;DHT22;370;48.810;9.150;2023-06-14T16:51:45;27.60;1.00
774;DHT22;370;48.810;9.150;2023-06-14T16:54:12;27.60;1.00
774;DHT22;370;48.810;9.150;2023-06-14T16:56:39;27.60;1.00
774;DHT22;370;48.810;9.150;2023-06-14T16:59:06;27.70;1.00
774;DHT22;370;48.810;9.150;2023-06-14T17:01:34;27.60;1.00
774;DHT22;370;48.810;9.150;2023-06-14T17:04:01;27.60;1.00
774;DHT22;370;48.810;9.150;2023-06-14T17:06:27;27.70;1.00
774;DHT22;370;48.810;9.150;2023-06-14T17:08:54;27.70;1.00